Time;durP1;ratioP1;P1;durP2;ratioP2;P2;SDS_P1;SDS_P2;PMS_P1;PMS_P2;Temp;Humidity;BMP_temperature;BMP_pressure;BME280_temperature;BME280_humidity;BME280_pressure;Samples;Min_cycle;Max_cycle;Signal;HPM_P1;HPM_P2
2021/04/01 00:01:56;;;;;;;20.02;12.52;;;12.30;99.90;;;12.10;92.60;101348.34;4153758;28;20056;-75
2021/04/01 00:03:57;;;;;;;18.88;11.95;;;12.30;99.90;;;12.16;92.72;101345.09;4153623;28;20026;-75
2021/04/01 00:05:58;;;;;;;23.52;12.75;;;12.30;99.90;;;12.09;92.04;101344.91;4153696;28;20148;-75
2021/04/01 00:07:59;;;;;;;21.23;11.77;;;12.30;99.90;;;12.02;92.99;101346.47;4153805;28;20061;-75
2021/04/01 00:10:01;;;;;;;14.98;11.20;;;12.20;99.90;;;12.01;93.26;101342.16;4153745;28;20034;-75
2021/04/01 00:12:02;;;;;;;18.15;11.77;;;12.20;99.90;;;12.09;92.68;101341.41;4153444;28;20037;-75
2021/04/01 00:14:05;;;;;;;16.77;11.30;;;12.20;99.90;;;12.13;91.88;101340.94;4153504;28;20022;-75
2021/04/01 00:16:06;;;;;;;13.80;10.68;;;12.30;99.90;;;12.03;92.70;101340.22;4153476;28;20026;-75
2021/04/01 00:18:10;;;;;;;15.55;9.70;;;12.20;99.90;;;11.95;93.18;101336.63;4152322;28;20496;-75
2021/04/01 00:20:14;;;;;;;12.57;9.38;;;12.10;99.90;;;11.95;92.84;101336.63;4153012;28;20036;-75
2021/04/01 00:22:15;;;;;;;15.80;11.48;;;12.10;99.90;;;11.98;92.59;101339.81;4153038;28;20033;-75
2021/04/01 00:24:16;;;;;;;17.20;9.70;;;12.10;99.90;;;11.97;92.48;101346.09;4153326;28;20022;-75
2021/04/01 00:26:17;;;;;;;15.20;8.50;;;12.10;99.90;;;11.95;92.97;101331.34;4153342;28;20038;-75
2021/04/01 00:28:18;;;;;;;9.63;7.85;;;12.10;99.90;;;11.89;93.05;101331.94;4153118;28;20029;-75
2021/04/01 00:30:20;;;;;;;13.55;8.27;;;12.10;99.90;;;11.87;93.62;101329.47;4153389;28;20159;-75
2021/04/01 00:32:21;;;;;;;12.85;8.43;;;12.00;99.90;;;11.82;93.95;101326.44;4153277;28;20393;-75
2021/04/01 00:34:22;;;;;;;17.75;9.32;;;12.00;99.90;;;11.81;93.79;101324.78;4151950;28;20097;-75
2021/04/01 00:36:22;;;;;;;12.18;7.70;;;12.00;99.90;;;11.77;93.97;101328.69;4153245;28;20054;-75
2021/04/01 00:38:23;;;;;;;12.20;8.55;;;12.00;99.90;;;11.77;93.84;101333.16;4153243;28;20029;-75
2021/04/01 00:40:24;;;;;;;14.38;8.18;;;11.90;99.90;;;11.77;93.78;101323.41;4153162;28;20033;-78
2021/04/01 00:42:26;;;;;;;14.05;8.90;;;11.90;99.90;;;11.75;93.62;101333.31;4151635;28;20037;-75
2021/04/01 00:44:27;;;;;;;15.65;9.30;;;11.90;99.90;;;11.72;93.23;101328.31;4153068;28;20030;-75
2021/04/01 00:46:28;;;;;;;10.07;8.50;;;11.90;99.90;;;11.68;93.79;101333.03;4153102;28;20520;-76
2021/04/01 00:48:29;;;;;;;13.48;8.00;;;11.90;99.90;;;11.71;94.01;101328.47;4152954;28;20536;-75
2021/04/01 00:50:31;;;;;;;14.85;9.25;;;11.90;99.90;;;11.67;93.91;101317.34;4153096;28;20073;-75
2021/04/01 00:52:32;;;;;;;13.85;8.85;;;11.80;99.90;;;11.65;93.92;101319.28;4152864;28;20026;-75
2021/04/01 00:54:34;;;;;;;14.85;8.35;;;11.80;99.90;;;11.65;93.82;101325.41;4151761;28;20405;-75
2021/04/01 00:56:35;;;;;;;13.32;8.73;;;11.80;99.90;;;11.70;93.35;101335.56;4151647;28;20081;-75
2021/04/01 00:58:36;;;;;;;17.35;8.40;;;11.80;99.90;;;11.61;93.95;101323.22;4151458;28;20073;-75
2021/04/01 01:00:38;;;;;;;13.02;8.20;;;11.80;99.90;;;11.55;94.04;101310.59;4152713;28;20052;-75
2021/04/01 01:02:39;;;;;;;12.85;7.38;;;11.80;99.90;;;11.65;93.72;101328.03;4151786;28;20084;-75
2021/04/01 01:04:40;;;;;;;12.88;7.90;;;11.80;99.90;;;11.62;93.77;101328.34;4152804;28;20022;-75
2021/04/01 01:06:42;;;;;;;13.95;7.72;;;11.80;99.90;;;11.62;93.69;101324.84;4152998;28;20366;-75
2021/04/01 01:08:43;;;;;;;12.07;8.57;;;11.80;99.90;;;11.69;92.47;101320.66;4152650;28;20564;-75
2021/04/01 01:10:44;;;;;;;16.48;8.38;;;11.80;99.90;;;11.61;92.90;101317.94;4152768;28;20085;-75
2021/04/01 01:12:45;;;;;;;15.15;7.88;;;11.80;99.90;;;11.58;92.80;101324.34;4152417;28;20029;-75
2021/04/01 01:14:46;;;;;;;20.48;9.25;;;11.70;99.90;;;11.59;92.64;101315.41;4135241;28;20034;-75
2021/04/01 01:16:47;;;;;;;13.70;8.85;;;11.70;99.90;;;11.68;91.92;101328.75;4135165;28;20022;-75
2021/04/01 01:18:48;;;;;;;14.43;7.68;;;11.70;99.90;;;11.67;91.96;101322.63;4135457;28;20041;-75
2021/04/01 01:20:49;;;;;;;13.15;8.27;;;11.80;99.90;;;11.64;92.23;101317.63;4151497;28;20049;-75
2021/04/01 01:22:51;;;;;;;12.20;7.90;;;11.80;99.90;;;11.64;92.45;101317.63;4151414;28;20022;-75
2021/04/01 01:24:52;;;;;;;12.80;7.18;;;11.70;99.90;;;11.56;92.42;101307.78;4134978;28;20033;-75
2021/04/01 01:26:53;;;;;;;12.68;7.47;;;11.70;99.90;;;11.49;92.77;101308.53;4135205;28;20402;-75
2021/04/01 01:28:54;;;;;;;13.32;7.90;;;11.70;99.90;;;11.51;92.10;101307.41;4134870;28;20027;-75
2021/04/01 01:30:55;;;;;;;14.15;8.15;;;11.70;99.90;;;11.49;92.76;101312.03;4134995;28;20022;-75
2021/04/01 01:33:03;;;;;;;11.70;7.35;;;11.60;99.90;;;11.41;93.23;101314.56;4151370;28;20025;-75
2021/04/01 01:35:16;;;;;;;10.70;7.70;;;11.60;99.90;;;11.34;93.67;101310.84;4152211;28;20029;-75
2021/04/01 01:37:17;;;;;;;14.60;7.95;;;11.60;99.90;;;11.29;93.31;101304.34;4151230;28;20571;-77
2021/04/01 01:39:18;;;;;;;10.70;7.97;;;11.60;99.90;;;11.25;93.39;101300.34;4152202;28;20069;-75
2021/04/01 01:41:19;;;;;;;13.25;7.78;;;11.50;99.90;;;11.32;92.76;101317.28;4151211;28;20025;-75
2021/04/01 01:43:20;;;;;;;14.32;8.25;;;11.50;99.90;;;11.32;92.97;101312.78;4152151;28;20061;-75
2021/04/01 01:45:22;;;;;;;11.35;6.70;;;11.40;99.90;;;11.23;92.75;101304.94;4152127;28;20034;-75
2021/04/01 01:47:23;;;;;;;12.05;8.32;;;11.40;99.90;;;11.17;93.50;101308.16;4151984;28;20045;-75
2021/04/01 01:49:24;;;;;;;11.82;7.53;;;11.40;99.90;;;11.19;92.93;101306.19;4152240;28;20101;-75
2021/04/01 01:51:27;;;;;;;12.90;7.85;;;11.30;99.90;;;11.17;92.81;101308.16;4152248;28;20029;-75
2021/04/01 01:53:28;;;;;;;14.05;8.05;;;11.30;99.90;;;11.09;92.70;101299.16;4152200;28;20033;-75
2021/04/01 01:55:30;;;;;;;13.43;7.95;;;11.30;99.90;;;11.09;93.06;101303.59;4150786;28;20060;-75
2021/04/01 01:57:33;;;;;;;13.55;8.20;;;11.30;99.90;;;10.98;93.71;101304.63;4138761;28;20029;-75
2021/04/01 01:59:34;;;;;;;11.07;8.05;;;11.20;99.90;;;11.03;93.99;101297.09;4152097;28;20022;-75
2021/04/01 02:01:35;;;;;;;14.90;7.72;;;11.20;99.90;;;11.05;94.04;101303.03;4152170;28;20026;-75
2021/04/01 02:03:36;;;;;;;12.45;7.57;;;11.20;99.90;;;10.98;93.92;101302.00;4150886;28;20045;-75
2021/04/01 02:05:39;;;;;;;12.65;7.70;;;11.20;99.90;;;11.04;93.66;101288.22;4134714;28;20022;-75
2021/04/01 02:07:40;;;;;;;15.50;8.68;;;11.20;99.90;;;11.05;93.21;101299.59;4152110;28;20048;-75
2021/04/01 02:09:48;;;;;;;13.50;8.38;;;11.20;99.90;;;11.11;93.26;101299.81;4151995;28;20026;-75
2021/04/01 02:11:49;;;;;;;14.50;7.93;;;11.20;99.90;;;11.06;93.75;101299.44;4151983;28;20378;-75
2021/04/01 02:13:50;;;;;;;16.60;9.05;;;11.20;99.90;;;11.00;94.41;101307.09;4151892;28;20077;-75
2021/04/01 02:15:55;;;;;;;11.93;7.65;;;11.20;99.90;;;10.96;94.48;101290.72;4152005;28;20029;-75
2021/04/01 02:18:07;;;;;;;14.18;8.10;;;11.20;99.90;;;10.96;94.38;101303.91;4151990;28;20030;-77
2021/04/01 02:20:10;;;;;;;11.93;8.07;;;11.10;99.90;;;10.95;94.74;101302.28;4151933;28;20492;-75
2021/04/01 02:22:12;;;;;;;12.07;7.75;;;11.10;99.90;;;10.97;94.48;101307.41;4134474;28;20057;-75
2021/04/01 02:24:12;;;;;;;13.20;8.73;;;11.10;99.90;;;10.77;94.94;101301.38;4134527;28;20041;-77
2021/04/01 02:26:13;;;;;;;12.10;8.10;;;11.10;99.90;;;10.80;95.68;101303.72;4134617;28;20026;-75
2021/04/01 02:28:22;;;;;;;10.73;7.32;;;11.10;99.90;;;10.84;96.12;101304.25;4151662;28;20061;-75
2021/04/01 02:30:23;;;;;;;12.88;7.80;;;11.00;99.90;;;10.85;95.79;101298.81;4152026;28;20086;-76
2021/04/01 02:32:24;;;;;;;14.43;7.35;;;11.00;99.90;;;10.89;95.31;101305.50;4151856;28;20112;-75
2021/04/01 02:34:25;;;;;;;13.75;7.78;;;11.00;99.90;;;10.92;95.17;101305.19;4151759;28;20044;-75
2021/04/01 02:36:26;;;;;;;12.70;7.38;;;11.00;99.90;;;10.90;94.91;101295.78;4151974;28;20033;-75
2021/04/01 02:38:28;;;;;;;12.85;6.57;;;11.00;99.90;;;10.88;94.63;101297.69;4151976;28;20030;-75
2021/04/01 02:40:29;;;;;;;16.80;7.10;;;11.00;99.90;;;10.88;94.68;101295.91;4151906;28;20033;-75
2021/04/01 02:42:31;;;;;;;11.23;6.95;;;11.00;99.90;;;10.87;94.17;101298.69;4151575;28;20029;-75
2021/04/01 02:44:32;;;;;;;12.68;7.18;;;11.00;99.90;;;10.91;94.01;101298.25;4152427;28;20030;-75
2021/04/01 02:46:33;;;;;;;12.63;7.03;;;11.00;99.90;;;10.81;94.55;101292.16;4155252;28;20076;-75
2021/04/01 02:48:34;;;;;;;10.32;7.80;;;11.00;99.90;;;10.78;95.33;101291.63;4154999;28;20104;-77
2021/04/01 02:50:35;;;;;;;13.75;8.00;;;11.00;99.90;;;10.83;95.03;101299.94;4137543;28;20027;-75
2021/04/01 02:52:37;;;;;;;15.88;7.55;;;11.00;99.90;;;10.84;94.54;101299.78;4154931;28;20034;-77
2021/04/01 02:54:38;;;;;;;9.88;7.82;;;11.00;99.90;;;10.80;94.72;101301.06;4155030;28;20515;-75
2021/04/01 02:56:39;;;;;;;14.75;7.82;;;11.00;99.90;;;10.77;95.15;101303.16;4154816;28;20109;-75
2021/04/01 02:58:40;;;;;;;14.18;8.38;;;11.00;99.90;;;10.76;94.88;101296.22;4154621;28;20033;-75
2021/04/01 03:00:41;;;;;;;14.93;7.32;;;10.90;99.90;;;10.73;95.37;101293.84;4137179;28;20073;-75
2021/04/01 03:02:45;;;;;;;12.55;7.53;;;10.90;99.90;;;10.68;95.84;101289.03;4154949;28;20018;-75
2021/04/01 03:04:47;;;;;;;13.60;7.63;;;10.90;99.90;;;10.63;96.02;101290.44;4154802;28;20084;-75
2021/04/01 03:06:48;;;;;;;14.48;8.45;;;10.80;99.90;;;10.65;95.96;101291.13;4154822;28;20072;-75
2021/04/01 03:08:49;;;;;;;11.38;8.13;;;10.80;99.90;;;10.63;94.94;101280.72;4154571;28;20099;-75
2021/04/01 03:10:50;;;;;;;12.98;8.73;;;10.80;99.90;;;10.64;95.15;101292.06;4154829;28;20025;-75
2021/04/01 03:12:51;;;;;;;12.57;7.90;;;10.80;99.90;;;10.65;95.18;101302.50;4154393;28;20026;-75
2021/04/01 03:14:52;;;;;;;13.98;7.18;;;10.80;99.90;;;10.75;94.08;101298.00;4154740;28;20436;-75
2021/04/01 03:16:53;;;;;;;16.88;7.63;;;10.80;99.90;;;10.65;94.69;101285.84;4154462;28;20092;-75
2021/04/01 03:18:54;;;;;;;11.88;6.93;;;10.80;99.90;;;10.63;94.18;101283.34;4154726;28;20026;-75
2021/04/01 03:20:54;;;;;;;11.40;7.70;;;10.80;99.90;;;10.62;94.32;101292.22;4153506;28;20057;-75
2021/04/01 03:22:55;;;;;;;16.77;7.85;;;10.80;99.90;;;10.66;94.73;101293.63;4136976;28;20022;-75
2021/04/01 03:24:56;;;;;;;15.57;7.30;;;10.80;99.90;;;10.65;94.51;101291.13;4154362;28;20501;-75
2021/04/01 03:26:57;;;;;;;14.32;8.35;;;10.80;99.90;;;10.61;94.18;101277.38;4154507;28;20424;-75
2021/04/01 03:28:58;;;;;;;13.82;7.72;;;10.80;99.90;;;10.58;94.08;101277.66;4136968;28;20046;-75
2021/04/01 03:31:02;;;;;;;9.65;6.63;;;10.80;99.90;;;10.60;94.53;101288.91;4153150;28;20018;-77
2021/04/01 03:33:03;;;;;;;10.10;6.78;;;10.80;99.90;;;10.53;94.36;101277.25;4154264;28;20564;-75
2021/04/01 03:35:08;;;;;;;9.45;6.47;;;10.80;99.90;;;10.54;94.46;101294.75;4153175;28;20081;-75
2021/04/01 03:37:09;;;;;;;11.80;7.65;;;10.70;99.90;;;10.38;94.54;101278.69;4154448;28;20100;-75
2021/04/01 03:39:10;;;;;;;14.68;8.45;;;10.70;99.90;;;10.35;95.08;101287.72;4154261;28;20021;-75
2021/04/01 03:41:11;;;;;;;10.98;6.63;;;10.60;99.90;;;10.36;95.42;101286.72;4154167;28;20022;-75
2021/04/01 03:43:12;;;;;;;16.38;6.80;;;10.60;99.90;;;10.45;95.04;101282.44;4154118;28;20564;-75
2021/04/01 03:45:15;;;;;;;11.10;7.68;;;10.60;99.90;;;10.49;94.32;101289.06;4154291;28;20527;-75
2021/04/01 03:47:16;;;;;;;13.15;7.00;;;10.60;99.90;;;10.49;93.84;101287.25;4154099;28;20026;-75
2021/04/01 03:49:17;;;;;;;14.52;7.53;;;10.60;99.90;;;10.49;94.22;101281.16;4152652;28;20050;-75
2021/04/01 03:51:18;;;;;;;13.02;7.55;;;10.60;99.90;;;10.51;94.28;101276.59;4153003;28;20029;-75
2021/04/01 03:53:19;;;;;;;11.70;7.90;;;10.70;99.90;;;10.52;94.29;101288.78;4136319;28;20058;-75
2021/04/01 03:57:33;;;;;;;14.75;7.40;;;10.60;99.90;;;10.60;92.95;101288.91;4153782;28;20022;-75
2021/04/01 03:59:49;;;;;;;12.07;7.50;;;10.70;99.90;;;10.62;92.93;101294.03;4152683;28;20472;-75
2021/04/01 04:02:36;;;;;;;11.48;7.57;;;10.70;99.90;;;10.32;93.32;101282.72;4136153;28;20025;-75
2021/04/01 04:04:32;;;;;;;15.15;7.95;;;10.60;99.90;;;10.25;92.93;101273.69;4136768;28;20313;-75
2021/04/01 04:13:13;;;;;;;15.40;7.97;;;10.50;99.90;;;10.15;94.53;101287.88;4153530;28;20040;-74
2021/04/01 04:15:20;;;;;;;14.88;8.65;;;10.40;99.90;;;10.15;94.68;101301.06;4137469;28;20030;-74
2021/04/01 04:17:21;;;;;;;16.30;8.98;;;10.40;99.90;;;10.17;95.05;101307.00;4153649;28;20033;-77
2021/04/01 04:19:22;;;;;;;15.02;8.80;;;10.40;99.90;;;10.20;94.79;101302.28;4153563;28;20022;-74
2021/04/01 04:21:23;;;;;;;15.50;8.55;;;10.40;99.90;;;10.16;94.98;101292.16;4153567;28;20034;-77
2021/04/01 04:23:25;;;;;;;12.27;7.82;;;10.40;99.90;;;10.18;95.34;101308.69;4152227;28;20104;-74
2021/04/01 04:25:26;;;;;;;15.35;9.13;;;10.30;99.90;;;10.16;94.60;101294.78;4153592;28;20171;-75
2021/04/01 04:30:08;;;;;;;15.07;8.48;;;10.40;99.90;;;10.16;94.39;101294.78;4099530;29;20058;-75
2021/04/01 04:32:09;;;;;;;16.92;8.10;;;10.40;99.90;;;10.19;94.47;101302.41;4087441;29;20526;-75
2021/04/01 04:34:10;;;;;;;9.73;7.78;;;10.40;99.90;;;10.11;94.42;101297.00;4087139;29;20039;-75
2021/04/01 04:36:11;;;;;;;11.18;7.88;;;10.30;99.90;;;10.22;93.73;101296.88;4148535;28;20405;-75
2021/04/01 04:38:12;;;;;;;14.70;8.45;;;10.30;99.90;;;10.15;94.05;101298.41;4153393;28;20453;-77
2021/04/01 04:40:14;;;;;;;13.02;8.60;;;10.30;99.90;;;10.14;94.25;101308.13;4153283;28;20034;-75
2021/04/01 04:42:15;;;;;;;16.88;8.27;;;10.30;99.90;;;10.09;94.35;101294.50;4152930;28;20026;-75
2021/04/01 04:44:16;;;;;;;15.98;8.45;;;10.30;99.90;;;10.08;94.25;101297.28;4135569;28;20414;-75
2021/04/01 04:46:17;;;;;;;16.17;8.77;;;10.20;99.90;;;10.05;93.85;101295.75;4153154;28;20182;-75
2021/04/01 04:48:18;;;;;;;14.23;7.95;;;10.30;99.90;;;10.05;93.97;101303.66;4151829;28;20049;-77
2021/04/01 04:50:19;;;;;;;11.13;7.60;;;10.20;99.90;;;10.02;93.96;101301.28;4135797;28;20034;-77
2021/04/01 04:52:20;;;;;;;10.77;7.72;;;10.20;99.90;;;9.94;94.37;101303.81;4135574;28;20033;-77
2021/04/01 04:54:21;;;;;;;12.70;7.57;;;10.20;99.90;;;9.95;93.79;101297.53;4136710;28;20089;-77
2021/04/01 04:56:24;;;;;;;18.60;8.10;;;10.20;99.90;;;10.02;93.63;101307.41;4136719;28;20113;-77
2021/04/01 05:05:10;;;;;;;10.52;6.93;;;10.10;99.90;;;9.95;93.97;101311.56;4136672;28;20041;-77
2021/04/01 05:07:11;;;;;;;12.98;8.13;;;10.10;99.90;;;10.02;93.03;101306.56;4136338;28;20050;-77
2021/04/01 05:09:13;;;;;;;15.15;7.95;;;10.10;99.90;;;9.96;93.63;101310.59;4136854;28;20450;-77
2021/04/01 05:11:13;;;;;;;14.23;7.47;;;10.20;99.90;;;9.87;93.67;101295.59;4151607;28;20034;-76
2021/04/01 05:13:15;;;;;;;12.82;7.05;;;10.10;99.90;;;9.93;93.29;101302.97;4136196;28;20042;-77
2021/04/01 05:15:16;;;;;;;15.05;8.68;;;10.10;99.90;;;9.85;93.92;101294.09;4136413;28;20025;-77
2021/04/01 05:17:19;;;;;;;13.93;8.68;;;10.10;99.90;;;9.79;94.21;101292.84;4136616;28;20022;-77
2021/04/01 05:19:21;;;;;;;13.32;8.57;;;10.00;99.90;;;9.85;93.39;101291.44;4151302;28;20026;-77
2021/04/01 05:21:30;;;;;;;10.57;6.75;;;10.00;99.90;;;9.86;93.53;101291.31;4151266;28;20048;-77
2021/04/01 05:25:34;;;;;;;12.30;8.25;;;10.00;99.90;;;9.80;92.63;101283.94;4136448;28;20081;-77
2021/04/01 05:27:48;;;;;;;16.52;8.48;;;10.00;99.90;;;9.88;92.76;101293.81;4151159;28;20468;-77
2021/04/01 05:30:02;;;;;;;13.70;7.93;;;10.00;99.90;;;9.82;92.81;101295.19;4136190;28;20093;-76
2021/04/01 05:32:04;;;;;;;11.50;7.55;;;10.00;99.90;;;9.81;91.93;101285.63;4149911;28;20029;-76
2021/04/01 05:34:06;;;;;;;9.27;6.88;;;9.90;99.90;;;9.74;92.07;101289.75;4136375;28;20031;-77
2021/04/01 05:36:09;;;;;;;10.15;7.00;;;9.90;99.90;;;9.69;92.51;101281.44;4134907;28;20050;-78
2021/04/01 05:38:10;;;;;;;10.77;7.35;;;9.90;99.90;;;9.71;92.93;101290.03;4136531;28;20058;-78
2021/04/01 05:40:14;;;;;;;15.30;9.57;;;9.90;99.90;;;9.71;92.58;101294.47;4151384;28;20022;-78
2021/04/01 05:42:17;;;;;;;11.13;8.32;;;9.90;99.90;;;9.65;93.06;101293.22;4146487;28;20024;-79
2021/04/01 05:46:27;;;;;;;16.77;8.20;;;9.80;99.90;;;9.62;92.40;101309.28;4132462;28;20433;-80
2021/04/01 05:48:39;;;;;;;12.25;7.60;;;9.80;99.90;;;9.55;91.77;101292.38;4117155;28;20042;-80
2021/04/01 05:51:14;;;;;;;12.60;7.65;;;9.80;99.90;;;9.62;92.80;101298.75;4149448;28;20032;-80
2021/04/01 05:58:59;;;;;;;17.95;7.07;;;9.80;99.90;;;9.54;92.99;101306.50;4124051;28;20039;-80
2021/04/01 06:03:15;;;;;;;11.02;6.95;;;9.70;99.90;;;9.50;92.98;101305.09;4150729;28;20116;-80
2021/04/01 06:05:22;;;;;;;11.00;7.13;;;9.70;99.90;;;9.51;93.15;101308.56;4146427;28;20065;-79
2021/04/01 06:07:31;;;;;;;12.45;8.13;;;9.70;99.90;;;9.48;93.34;101304.41;4150177;28;20026;-78
2021/04/01 06:09:42;;;;;;;11.85;6.78;;;9.70;99.90;;;9.48;93.93;101300.94;4134661;28;20025;-78
2021/04/01 06:11:46;;;;;;;14.55;7.75;;;9.70;99.90;;;9.47;93.74;101304.56;4135672;28;20033;-77
2021/04/01 06:14:11;;;;;;;12.05;7.20;;;9.70;99.90;;;9.51;92.68;101304.16;4137240;28;20033;-77
2021/04/01 06:16:13;;;;;;;12.48;7.50;;;9.70;99.90;;;9.58;92.08;101305.28;4149237;28;20432;-77
2021/04/01 06:18:16;;;;;;;12.30;6.68;;;9.80;99.90;;;9.53;91.92;101296.13;4151350;28;20030;-77
2021/04/01 06:20:17;;;;;;;9.02;6.90;;;9.80;99.90;;;9.54;91.97;101303.03;4139737;28;20133;-77
2021/04/01 06:22:22;;;;;;;14.23;6.75;;;9.80;99.90;;;9.53;92.54;101299.56;4141325;28;20030;-77
2021/04/01 06:24:29;;;;;;;10.73;6.75;;;9.80;99.90;;;9.61;92.98;101304.19;4155822;28;20034;-77
2021/04/01 06:26:33;;;;;;;9.05;6.10;;;9.90;99.90;;;9.61;92.92;101309.44;4155745;28;20033;-76
2021/04/01 06:28:51;;;;;;;12.30;6.50;;;9.90;99.90;;;9.66;93.10;101301.94;4139420;28;20034;-78
2021/04/01 06:30:57;;;;;;;8.85;6.00;;;10.00;99.90;;;9.71;92.78;101303.22;4155354;28;20383;-76
2021/04/01 06:33:06;;;;;;;11.90;6.85;;;10.10;99.90;;;9.84;93.08;101322.22;4155208;28;20449;-77
2021/04/01 06:39:44;;;;;;;12.00;6.30;;;10.30;99.90;;;10.05;92.08;101324.75;4128237;28;20044;-76
2021/04/01 06:41:45;;;;;;;13.52;6.60;;;10.40;99.90;;;10.10;92.54;101324.31;4140800;28;20034;-77
2021/04/01 06:43:55;;;;;;;13.32;6.63;;;10.40;99.90;;;10.23;91.46;101327.53;4156045;28;20062;-76
2021/04/01 06:46:19;;;;;;;10.18;7.15;;;10.50;99.90;;;10.28;91.41;101333.22;4140683;28;20090;-76
2021/04/01 06:48:23;;;;;;;16.02;8.10;;;10.50;99.90;;;10.25;90.35;101328.22;4139476;28;20492;-76
2021/04/01 06:50:38;;;;;;;;;;;10.60;99.90;;;10.20;90.58;101336.56;4139974;28;20097;-76
2021/04/01 06:52:52;;;;;;;11.23;6.45;;;10.60;99.90;;;10.24;91.89;101339.75;4139686;28;19909;-76
2021/04/01 06:55:07;;;;;;;12.95;7.50;;;10.70;99.90;;;10.27;92.40;101334.22;4155717;28;20030;-76
2021/04/01 07:00:41;;;;;;;14.55;6.93;;;10.80;99.90;;;10.50;92.11;101335.56;4155341;28;20187;-76
2021/04/01 07:02:32;;;;;;;10.48;6.95;;;10.90;99.90;;;10.63;91.43;101325.56;4145634;28;20053;-76
2021/04/01 07:04:36;;;;;;;10.23;6.00;;;11.10;99.90;;;10.74;91.63;101348.31;4154675;28;20520;-76
2021/04/01 07:06:46;;;;;;;13.07;7.07;;;11.10;99.90;;;10.74;92.13;101333.31;4140881;28;20448;-77
2021/04/01 07:11:24;;;;;;;13.80;6.57;;;11.30;99.90;;;10.87;92.49;101333.00;4140720;28;20065;-77
2021/04/01 07:13:23;;;;;;;12.00;7.60;;;11.40;99.90;;;11.01;92.30;101348.38;4150082;28;22048;-76
2021/04/01 07:15:26;;;;;;;13.30;6.88;;;11.50;99.90;;;11.09;92.65;101351.13;4139484;28;20524;-76
2021/04/01 07:17:43;;;;;;;14.27;7.90;;;11.60;99.90;;;11.15;92.04;101341.78;4139624;28;20037;-76
2021/04/01 07:32:24;;;;;;;13.43;7.13;;;12.20;99.90;;;11.73;90.38;101359.06;4151059;28;20076;-76
2021/04/01 07:46:22;;;;;;;12.55;6.95;;;12.70;99.90;;;12.35;89.95;101366.13;4150388;28;20040;-77
2021/04/01 07:48:25;;;;;;;11.77;6.32;;;12.80;99.90;;;12.44;89.91;101364.38;4145610;28;20054;-76
2021/04/01 07:50:40;;;;;;;12.57;6.03;;;12.90;99.90;;;12.55;89.57;101375.53;4152788;28;20026;-76
2021/04/01 07:52:45;;;;;;;13.05;7.43;;;13.10;99.90;;;12.64;87.97;101371.97;4153850;28;20057;-76
2021/04/01 07:57:11;;;;;;;12.02;6.05;;;13.30;99.90;;;12.75;86.08;101377.00;4152579;28;19919;-77
2021/04/01 08:05:56;;;;;;;15.77;6.35;;;13.60;99.90;;;13.26;77.90;101396.59;4153765;28;20029;-77
2021/04/01 08:08:08;;;;;;;11.25;5.82;;;13.80;99.90;;;13.38;77.65;101407.75;4153884;28;20045;-76
2021/04/01 08:10:11;;;;;;;11.88;5.50;;;13.90;99.90;;;13.50;73.25;101395.88;4153721;28;20026;-77
2021/04/01 08:12:27;;;;;;;11.32;4.50;;;14.10;99.90;;;13.58;75.32;101391.44;4152213;28;20022;-77
2021/04/01 08:14:34;;;;;;;11.30;6.10;;;14.20;99.90;;;13.73;76.39;101391.66;4136084;28;20041;-77
2021/04/01 08:16:41;;;;;;;16.00;5.90;;;14.40;99.90;;;13.79;73.76;101388.38;4152431;28;20022;-77
2021/04/01 08:18:45;;;;;;;11.35;6.10;;;14.40;99.90;;;13.86;74.96;101397.31;4135987;28;20050;-77
2021/04/01 08:20:54;;;;;;;12.15;5.25;;;14.50;99.90;;;13.86;75.94;101386.72;4152258;28;20088;-77
2021/04/01 08:23:10;;;;;;;13.70;5.20;;;14.60;99.90;;;13.96;75.57;101398.03;4135834;28;20081;-77
2021/04/01 08:25:14;;;;;;;17.70;5.05;;;14.60;99.90;;;14.04;74.19;101395.38;4135935;28;20122;-77
2021/04/01 08:27:33;;;;;;;9.93;5.53;;;14.70;99.90;;;14.13;72.17;101394.41;4119922;28;20042;-77
2021/04/01 08:34:21;;;;;;;12.38;4.53;;;15.00;99.90;;;14.51;70.39;101405.44;4152189;28;20034;-77
2021/04/01 08:36:26;;;;;;;12.93;4.95;;;15.10;99.90;;;14.64;68.12;101408.41;4153153;28;20109;-76
2021/04/01 08:38:28;;;;;;;12.02;4.63;;;15.30;99.90;;;14.64;68.49;101397.81;4153379;28;20495;-76
2021/04/01 08:40:29;;;;;;;11.23;4.38;;;15.40;99.90;;;14.75;68.20;101405.47;4152063;28;20029;-76
2021/04/01 08:43:04;;;;;;;12.32;4.25;;;15.50;99.90;;;14.96;68.12;101408.44;4152334;28;20504;-77
2021/04/01 08:45:38;;;;;;;16.58;5.38;;;15.60;99.90;;;14.99;65.06;101404.59;4153259;28;20030;-77
2021/04/01 08:48:31;;;;;;;11.52;4.75;;;15.70;99.90;;;15.20;64.05;101395.06;4135339;28;20059;-77
2021/04/01 08:50:52;;;;;;;14.13;4.22;;;15.90;99.90;;;15.35;64.27;101404.00;4137309;28;20128;-77
2021/04/01 08:53:47;;;;;;;17.30;4.70;;;16.10;99.90;;;15.39;64.81;101404.50;4153053;28;20038;-76
2021/04/01 08:55:56;;;;;;;14.88;3.80;;;16.20;99.90;;;15.54;64.47;101409.94;4121661;28;20567;-76
2021/04/01 08:58:41;;;;;;;8.88;4.35;;;16.20;99.90;;;15.61;64.72;101411.78;4135456;28;20106;-76
2021/04/01 09:00:43;;;;;;;11.00;4.25;;;16.30;99.90;;;15.68;63.67;101403.94;4087023;29;20036;-77
2021/04/01 09:02:54;;;;;;;11.82;3.60;;;16.40;99.90;;;15.70;63.27;101401.91;4127639;28;20053;-76
2021/04/01 09:05:00;;;;;;;11.85;4.80;;;16.50;99.90;;;15.89;60.88;101407.63;4135609;28;20014;-76
2021/04/01 09:07:24;;;;;;;8.32;3.75;;;16.60;99.90;;;15.96;63.34;101411.25;4152717;28;20108;-76
2021/04/01 09:09:34;;;;;;;10.60;3.80;;;16.70;99.90;;;16.06;61.05;101419.03;4151769;28;20065;-77
2021/04/01 09:11:53;;;;;;;11.73;4.65;;;16.80;99.90;;;16.23;58.73;101415.25;4151407;28;20036;-77
2021/04/01 09:13:55;;;;;;;10.38;4.43;;;16.90;99.90;;;16.36;59.30;101425.34;4152698;28;20569;-76
2021/04/01 09:16:04;;;;;;;8.27;3.40;;;17.10;99.90;;;16.35;60.11;101416.50;4152626;28;20033;-76
2021/04/01 09:18:07;;;;;;;8.38;3.80;;;17.10;99.90;;;16.46;55.41;101420.59;4152701;28;20388;-76
2021/04/01 09:20:24;;;;;;;8.75;3.65;;;17.30;99.90;;;16.56;54.67;101410.56;4152480;28;20468;-77
2021/04/01 09:22:29;;;;;;;13.80;4.35;;;17.40;99.90;;;16.66;57.19;101413.00;4151453;28;20049;-77
2021/04/01 09:24:35;;;;;;;7.97;3.63;;;17.40;99.90;;;16.76;56.92;101417.06;4152565;28;20033;-77
2021/04/01 09:26:36;;;;;;;12.20;3.63;;;17.60;99.90;;;16.86;52.58;101412.31;4151102;28;20041;-77
2021/04/01 09:28:41;;;;;;;7.35;3.90;;;17.70;98.60;;;17.01;55.75;101413.16;4151460;28;20041;-77
2021/04/01 09:30:44;;;;;;;6.22;3.42;;;17.70;99.90;;;17.09;54.51;101412.25;4151441;28;20025;-76
2021/04/01 09:32:47;;;;;;;8.68;4.18;;;17.90;99.00;;;17.12;53.93;101404.72;4151398;28;20104;-76
2021/04/01 09:34:50;;;;;;;7.25;4.15;;;18.00;98.90;;;17.29;55.56;101408.06;4151119;28;20038;-76
2021/04/01 09:36:53;;;;;;;11.88;3.90;;;18.10;99.90;;;17.43;54.72;101415.22;4134920;28;20031;-76
2021/04/01 09:39:06;;;;;;;6.47;3.40;;;18.20;99.40;;;17.46;55.45;101414.84;4118990;28;20454;-77
2021/04/01 09:41:08;;;;;;;9.18;3.05;;;18.30;99.80;;;17.51;50.34;101392.94;4134820;28;20034;-76
2021/04/01 09:43:21;;;;;;;10.35;3.75;;;18.40;96.20;;;17.63;50.49;101403.00;4152269;28;20130;-76
2021/04/01 09:45:29;;;;;;;8.70;3.28;;;18.50;96.60;;;17.75;52.77;101400.69;4152607;28;20157;-74
2021/04/01 09:47:52;;;;;;;5.50;2.85;;;18.60;97.50;;;17.80;51.38;101392.94;4150899;28;20025;-77
2021/04/01 09:50:11;;;;;;;8.07;3.17;;;18.80;96.60;;;17.96;49.94;101399.91;4151067;28;20034;-76
2021/04/01 09:52:14;;;;;;;7.53;3.78;;;18.80;95.30;;;18.03;49.73;101401.66;4152166;28;20022;-76
2021/04/01 09:54:17;;;;;;;9.68;2.95;;;18.90;94.80;;;18.13;50.22;101395.97;4150037;28;20026;-76
2021/04/01 09:56:32;;;;;;;7.03;3.23;;;18.90;95.30;;;18.20;50.24;101394.22;4150908;28;20037;-74